Time;durP1;ratioP1;P1;durP2;ratioP2;P2;SDS_P1;SDS_P2;PMS_P1;PMS_P2;Temp;Humidity;BMP_temperature;BMP_pressure;BME280_temperature;BME280_humidity;BME280_pressure;Samples;Min_cycle;Max_cycle;Signal;HPM_P1;HPM_P2
2023/09/05 00:00:22;;;;;;;6.17;4.23;;;;;;;17.15;100.00;101774.25;4789819;29;20055;-88
2023/09/05 00:02:48;;;;;;;6.65;4.07;;;;;;;17.17;100.00;101769.38;4789927;30;20038;-88
2023/09/05 00:05:17;;;;;;;5.60;4.63;;;;;;;17.15;100.00;101777.81;4790419;29;20126;-88
2023/09/05 00:07:42;;;;;;;4.50;3.65;;;;;;;17.09;100.00;101776.03;4790297;29;20035;-87
2023/09/05 00:10:13;;;;;;;5.53;4.20;;;;;;;17.02;100.00;101764.34;4775379;30;20046;-88
2023/09/05 00:12:46;;;;;;;6.40;4.00;;;;;;;17.05;100.00;101765.78;4789903;29;20226;-88
2023/09/05 00:15:14;;;;;;;6.03;3.90;;;;;;;16.96;100.00;101765.28;4791058;29;20070;-88
2023/09/05 00:17:43;;;;;;;7.25;4.15;;;;;;;16.95;100.00;101764.47;4790960;29;20039;-88
2023/09/05 00:20:11;;;;;;;4.63;3.90;;;;;;;16.89;100.00;101764.56;4790980;29;20550;-88
2023/09/05 00:22:36;;;;;;;8.20;4.00;;;;;;;16.89;100.00;101765.41;4775155;30;20496;-88
2023/09/05 00:25:11;;;;;;;8.20;4.43;;;;;;;16.84;100.00;101770.72;4789611;29;20046;-88
2023/09/05 00:27:39;;;;;;;5.97;4.43;;;;;;;16.80;100.00;101772.25;4804430;29;20035;-88
2023/09/05 00:30:07;;;;;;;6.45;4.55;;;;;;;16.73;100.00;101771.53;4804498;29;20035;-88
2023/09/05 00:32:33;;;;;;;6.60;5.13;;;;;;;16.71;100.00;101765.44;4789637;29;20055;-88
2023/09/05 00:35:01;;;;;;;8.30;4.72;;;;;;;16.68;100.00;101764.00;4790930;29;20088;-88
2023/09/05 00:37:30;;;;;;;5.43;4.90;;;;;;;16.61;100.00;101771.50;4791219;30;20039;-89
2023/09/05 00:39:58;;;;;;;8.10;5.10;;;;;;;16.58;100.00;101774.69;4790647;29;20031;-88
2023/09/05 00:42:28;;;;;;;5.90;5.07;;;;;;;16.55;100.00;101769.69;4790013;29;20456;-88
2023/09/05 00:44:53;;;;;;;8.93;5.20;;;;;;;16.55;100.00;101777.91;4760377;29;20042;-88
2023/09/05 00:47:27;;;;;;;7.18;5.00;;;;;;;16.50;100.00;101773.13;4804323;29;20455;-88
2023/09/05 00:49:53;;;;;;;7.07;5.20;;;;;;;16.48;100.00;101772.53;4804880;29;20046;-88
2023/09/05 00:52:19;;;;;;;6.28;4.95;;;;;;;16.43;100.00;101775.97;4804426;29;20077;-87
2023/09/05 00:54:45;;;;;;;6.75;5.35;;;;;;;16.40;100.00;101773.69;4774392;30;20503;-88
2023/09/05 00:57:14;;;;;;;6.05;4.90;;;;;;;16.39;100.00;101780.22;4788600;30;20047;-88
2023/09/05 00:59:40;;;;;;;8.60;5.28;;;;;;;16.35;100.00;101768.06;4790284;29;20118;-88
2023/09/05 01:02:06;;;;;;;5.40;4.80;;;;;;;16.34;100.00;101773.78;4804244;29;20204;-87
2023/09/05 01:04:33;;;;;;;7.30;4.97;;;;;;;16.32;100.00;101771.28;4789123;29;20065;-87
2023/09/05 01:07:17;;;;;;;7.22;5.70;;;;;;;16.30;100.00;101771.50;4789483;29;20493;-88
2023/09/05 01:10:06;;;;;;;9.50;5.73;;;;;;;16.24;100.00;101775.16;4789001;29;20141;-88
2023/09/05 01:12:34;;;;;;;7.38;5.55;;;;;;;16.17;100.00;101776.34;4788523;29;20126;-88
2023/09/05 01:15:00;;;;;;;7.22;5.28;;;;;;;16.15;100.00;101773.81;4789052;29;20035;-88
2023/09/05 01:17:25;;;;;;;7.20;6.10;;;;;;;16.11;100.00;101767.13;4788304;29;20420;-88
2023/09/05 01:19:58;;;;;;;6.75;5.80;;;;;;;16.08;100.00;101762.94;4788913;29;20114;-88
2023/09/05 01:22:52;;;;;;;8.73;5.72;;;;;;;16.06;100.00;101761.50;4803723;29;20036;-88
2023/09/05 01:25:18;;;;;;;6.50;5.60;;;;;;;16.05;100.00;101762.59;4803477;29;20043;-88
2023/09/05 01:27:48;;;;;;;9.50;6.18;;;;;;;16.06;100.00;101764.22;4803258;29;20073;-88
2023/09/05 01:30:14;;;;;;;7.82;6.03;;;;;;;16.04;100.00;101769.94;4788602;30;20047;-88
2023/09/05 01:32:39;;;;;;;7.97;5.53;;;;;;;16.04;100.00;101782.81;4803562;29;20038;-87
2023/09/05 01:35:05;;;;;;;7.13;5.73;;;;;;;15.99;100.00;101783.50;4788857;29;20170;-88
2023/09/05 01:37:31;;;;;;;8.18;5.90;;;;;;;15.98;100.00;101778.25;4803387;29;20070;-87
2023/09/05 01:39:59;;;;;;;10.03;6.17;;;;;;;15.97;100.00;101780.13;4789702;30;20046;-88
2023/09/05 01:42:25;;;;;;;8.52;5.78;;;;;;;15.95;100.00;101782.28;4789882;30;20031;-88
2023/09/05 01:44:50;;;;;;;9.30;6.03;;;;;;;15.94;100.00;101783.31;4803482;29;20035;-88
2023/09/05 01:47:16;;;;;;;9.97;6.10;;;;;;;15.96;100.00;101776.56;4803697;29;20073;-88
2023/09/05 01:49:44;;;;;;;8.13;6.20;;;;;;;15.96;100.00;101773.00;4788596;30;20494;-88
2023/09/05 01:52:22;;;;;;;7.90;5.73;;;;;;;15.93;100.00;101774.28;4789315;30;20027;-88
2023/09/05 01:54:47;;;;;;;7.30;5.38;;;;;;;15.91;100.00;101772.84;4773002;30;20051;-88
2023/09/05 01:57:13;;;;;;;8.10;5.90;;;;;;;15.87;100.00;101771.63;4787610;29;20151;-88
2023/09/05 01:59:38;;;;;;;8.88;5.90;;;;;;;15.86;100.00;101778.19;4803029;29;20122;-88
2023/09/05 02:02:04;;;;;;;8.03;5.60;;;;;;;15.84;100.00;101775.66;4789277;29;20500;-88
2023/09/05 02:04:32;;;;;;;10.47;6.03;;;;;;;15.80;100.00;101771.72;4789183;29;20095;-88
2023/09/05 02:06:58;;;;;;;6.93;5.45;;;;;;;15.76;100.00;101767.72;4801867;29;20103;-88
2023/09/05 02:09:26;;;;;;;8.53;6.33;;;;;;;15.79;100.00;101773.59;4789557;30;20040;-88
2023/09/05 02:11:51;;;;;;;8.05;5.40;;;;;;;15.79;100.00;101764.56;4803233;29;20036;-88
2023/09/05 02:14:17;;;;;;;10.60;6.10;;;;;;;15.81;100.00;101769.78;4787853;29;20039;-88
2023/09/05 02:16:42;;;;;;;9.53;5.70;;;;;;;15.81;100.00;101772.53;4802718;29;20184;-88
2023/09/05 02:19:10;;;;;;;8.38;5.78;;;;;;;15.78;100.00;101769.19;4789203;29;20039;-88
2023/09/05 02:21:36;;;;;;;6.60;5.80;;;;;;;15.75;100.00;101771.50;4787633;29;20047;-88
2023/09/05 02:24:01;;;;;;;8.60;5.93;;;;;;;15.73;100.00;101758.06;4788069;29;20130;-88
2023/09/05 02:26:27;;;;;;;12.80;5.77;;;;;;;15.70;100.00;101757.69;4802127;29;20043;-88
2023/09/05 02:28:52;;;;;;;8.37;6.13;;;;;;;15.69;100.00;101756.00;4789188;29;20065;-88
2023/09/05 02:31:18;;;;;;;7.40;6.10;;;;;;;15.69;100.00;101764.22;4787728;29;20047;-89
2023/09/05 02:33:44;;;;;;;9.77;5.80;;;;;;;15.66;100.00;101768.22;4802644;29;20035;-88
2023/09/05 02:36:18;;;;;;;8.68;6.03;;;;;;;15.64;100.00;101770.38;4788653;29;20035;-88
2023/09/05 02:38:46;;;;;;;7.80;5.82;;;;;;;15.64;100.00;101778.56;4787803;30;20427;-88
2023/09/05 02:41:16;;;;;;;15.97;6.37;;;;;;;15.62;100.00;101783.44;4787374;30;20040;-88
2023/09/05 02:43:48;;;;;;;7.03;5.50;;;;;;;15.57;100.00;101773.16;4772218;29;20480;-89
2023/09/05 02:46:14;;;;;;;9.00;5.93;;;;;;;15.51;100.00;101765.03;4788617;29;20114;-88
2023/09/05 02:48:44;;;;;;;7.13;5.88;;;;;;;15.51;100.00;101767.78;4802077;29;20080;-87
2023/09/05 02:51:11;;;;;;;7.93;6.07;;;;;;;15.48;100.00;101762.75;4787479;29;20038;-87
2023/09/05 02:53:40;;;;;;;8.30;5.90;;;;;;;15.46;100.00;101767.59;4788424;29;20505;-88
2023/09/05 02:56:09;;;;;;;8.68;5.50;;;;;;;15.43;100.00;101761.53;4786914;29;20035;-88
2023/09/05 02:58:34;;;;;;;12.20;5.70;;;;;;;15.42;100.00;101753.56;4788423;29;20154;-88
2023/09/05 03:01:05;;;;;;;8.83;5.50;;;;;;;15.38;100.00;101760.53;4788366;29;20134;-88
2023/09/05 03:03:30;;;;;;;10.13;6.03;;;;;;;15.41;100.00;101755.47;4788326;29;20073;-87
2023/09/05 03:05:56;;;;;;;11.63;5.82;;;;;;;15.37;100.00;101756.16;4801913;29;20131;-88
2023/09/05 03:08:22;;;;;;;8.17;5.83;;;;;;;15.39;100.00;101754.84;4772016;30;20044;-88
2023/09/05 03:10:52;;;;;;;8.13;5.80;;;;;;;15.35;100.00;101752.78;4772164;29;20125;-88
2023/09/05 03:13:18;;;;;;;7.97;5.40;;;;;;;15.32;100.00;101754.06;4788015;29;20062;-88
2023/09/05 03:15:49;;;;;;;8.25;5.38;;;;;;;15.25;100.00;101756.03;4787001;29;20059;-88
2023/09/05 03:18:15;;;;;;;9.50;5.50;;;;;;;15.22;100.00;101760.06;4787267;29;20138;-88
2023/09/05 03:20:40;;;;;;;8.07;5.73;;;;;;;15.21;100.00;101761.09;4786871;29;20126;-88
2023/09/05 03:23:11;;;;;;;9.67;5.97;;;;;;;15.21;100.00;101771.22;4786706;29;20055;-89
2023/09/05 03:25:39;;;;;;;8.90;5.68;;;;;;;15.19;100.00;101763.25;4772938;29;20039;-88
2023/09/05 03:28:10;;;;;;;7.28;5.30;;;;;;;15.18;100.00;101761.56;4771740;30;20120;-88
2023/09/05 03:30:35;;;;;;;9.27;5.67;;;;;;;15.16;100.00;101754.63;4788281;29;20070;-88
2023/09/05 03:33:03;;;;;;;8.40;5.40;;;;;;;15.15;100.00;101750.25;4801807;29;20059;-88
2023/09/05 03:35:32;;;;;;;9.52;6.03;;;;;;;15.12;100.00;101745.22;4786759;30;20043;-88
2023/09/05 03:38:01;;;;;;;7.20;5.17;;;;;;;15.10;100.00;101750.91;4787865;29;20118;-88
2023/09/05 03:40:26;;;;;;;7.22;5.60;;;;;;;15.07;100.00;101743.16;4787081;30;20039;-88
2023/09/05 03:42:54;;;;;;;7.30;5.57;;;;;;;15.02;100.00;101740.28;4801897;29;20050;-88
2023/09/05 03:45:21;;;;;;;7.90;5.15;;;;;;;14.97;100.00;101754.59;4786679;29;20059;-88
2023/09/05 03:47:49;;;;;;;6.70;5.33;;;;;;;14.99;100.00;101748.91;4786500;30;20408;-88
2023/09/05 03:50:17;;;;;;;7.25;5.22;;;;;;;14.95;100.00;101743.03;4801744;29;20047;-88
2023/09/05 03:52:45;;;;;;;8.65;5.40;;;;;;;14.93;100.00;101745.16;4786999;29;20035;-88
2023/09/05 03:55:10;;;;;;;7.70;4.70;;;;;;;14.95;100.00;101743.03;4787824;30;20028;-88
2023/09/05 03:57:38;;;;;;;8.77;5.07;;;;;;;14.93;100.00;101739.72;4771688;30;20400;-88
2023/09/05 04:00:07;;;;;;;6.82;5.03;;;;;;;14.89;100.00;101742.03;4786354;29;20051;-87
2023/09/05 04:02:35;;;;;;;7.32;5.13;;;;;;;14.85;100.00;101749.03;4787584;29;20051;-88
2023/09/05 04:05:03;;;;;;;6.63;4.73;;;;;;;14.86;100.00;101745.22;4801525;29;20062;-88
2023/09/05 04:07:29;;;;;;;9.15;4.97;;;;;;;14.87;100.00;101746.06;4772208;29;20058;-88
2023/09/05 04:09:57;;;;;;;6.43;4.78;;;;;;;14.82;100.00;101740.41;4787908;30;20391;-88
2023/09/05 04:12:23;;;;;;;6.63;4.72;;;;;;;14.77;100.00;101732.88;4787146;29;20153;-88
2023/09/05 04:14:54;;;;;;;6.00;4.87;;;;;;;14.82;100.00;101745.88;4786605;29;20182;-88
2023/09/05 04:17:19;;;;;;;7.13;4.80;;;;;;;14.76;100.00;101730.38;4802417;29;20042;-88
2023/09/05 04:19:54;;;;;;;6.37;4.80;;;;;;;14.73;100.00;101737.13;4774777;30;20393;-88
2023/09/05 04:22:21;;;;;;;6.28;4.80;;;;;;;14.71;100.00;101728.31;4789888;29;20096;-88
2023/09/05 04:24:51;;;;;;;8.60;4.97;;;;;;;14.65;100.00;101727.31;4789604;29;20572;-88
2023/09/05 04:27:16;;;;;;;6.78;4.80;;;;;;;14.64;100.00;101716.59;4774514;30;20523;-87
2023/09/05 04:29:42;;;;;;;6.17;4.80;;;;;;;14.63;100.00;101723.13;4804804;29;20129;-88
2023/09/05 04:32:09;;;;;;;5.83;4.97;;;;;;;14.62;100.00;101726.91;4789899;29;20070;-87
2023/09/05 04:34:35;;;;;;;7.30;4.80;;;;;;;14.60;100.00;101726.25;4774887;29;20038;-88
2023/09/05 04:37:04;;;;;;;6.70;4.73;;;;;;;14.55;100.00;101730.47;4790762;29;20035;-88
2023/09/05 04:39:32;;;;;;;5.13;4.32;;;;;;;14.54;100.00;101725.25;4804739;29;20374;-88
2023/09/05 04:42:00;;;;;;;7.45;4.60;;;;;;;14.52;100.00;101720.00;4804378;29;20038;-88
2023/09/05 04:44:27;;;;;;;6.35;4.80;;;;;;;14.54;100.00;101722.50;4805208;29;20469;-88
2023/09/05 04:46:54;;;;;;;8.00;4.20;;;;;;;14.51;100.00;101717.50;4804855;29;20031;-88
2023/09/05 04:49:22;;;;;;;7.85;4.60;;;;;;;14.50;100.00;101715.84;4790527;29;20039;-88
2023/09/05 04:51:50;;;;;;;7.75;4.72;;;;;;;14.54;100.00;101722.50;4789210;29;20035;-88
2023/09/05 04:54:16;;;;;;;6.22;4.75;;;;;;;14.51;100.00;101714.75;4790805;30;20039;-88
2023/09/05 04:56:41;;;;;;;6.13;4.73;;;;;;;14.53;100.00;101713.50;4803714;29;20035;-88
2023/09/05 04:59:07;;;;;;;8.63;4.85;;;;;;;14.53;100.00;101721.69;4803903;29;20159;-88
2023/09/05 05:01:32;;;;;;;6.77;4.50;;;;;;;14.55;100.00;101727.75;4790285;29;20059;-88
2023/09/05 05:04:00;;;;;;;6.83;3.83;;;;;;;14.57;100.00;101722.06;4790343;29;20362;-88
2023/09/05 05:06:28;;;;;;;6.18;4.53;;;;;;;14.58;100.00;101718.28;4804815;29;20042;-88
2023/09/05 05:08:54;;;;;;;8.90;4.47;;;;;;;14.59;100.00;101719.97;4789088;30;20035;-88
2023/09/05 05:11:19;;;;;;;10.93;4.33;;;;;;;14.62;100.00;101719.56;4789158;30;20035;-87
2023/09/05 05:13:45;;;;;;;4.87;4.00;;;;;;;14.65;100.00;101721.00;4803820;29;20045;-88
2023/09/05 05:16:12;;;;;;;11.53;4.20;;;;;;;14.69;100.00;101733.16;4803826;29;20071;-88
2023/09/05 05:18:41;;;;;;;8.43;4.20;;;;;;;14.71;100.00;101736.50;4789241;30;20309;-87
2023/09/05 05:21:06;;;;;;;7.05;3.95;;;;;;;14.70;100.00;101732.97;4803837;29;20047;-82
2023/09/05 05:23:31;;;;;;;7.47;4.23;;;;;;;14.74;100.00;101727.88;4789968;29;20024;-82
2023/09/05 05:25:59;;;;;;;5.72;4.00;;;;;;;14.78;100.00;101731.84;4788735;29;20397;-83
2023/09/05 05:28:24;;;;;;;8.00;3.87;;;;;;;14.84;100.00;101738.31;4803296;29;20035;-83
2023/09/05 05:30:50;;;;;;;5.07;3.87;;;;;;;14.87;100.00;101740.59;4802968;29;20507;-83
2023/09/05 05:33:15;;;;;;;4.90;3.58;;;;;;;14.93;100.00;101747.06;4788716;29;20082;-83
2023/09/05 05:35:41;;;;;;;5.53;3.80;;;;;;;14.97;100.00;101746.41;4787940;30;20128;-81
2023/09/05 05:38:06;;;;;;;4.78;3.63;;;;;;;15.04;100.00;101755.38;4788740;29;20039;-82
2023/09/05 05:40:32;;;;;;;7.20;3.83;;;;;;;15.08;100.00;101744.84;4788367;29;20042;-82
2023/09/05 05:42:57;;;;;;;7.80;3.70;;;;;;;15.15;100.00;101739.31;4788395;30;20047;-82
2023/09/05 05:45:23;;;;;;;7.67;3.60;;;;;;;15.21;100.00;101744.72;4788242;29;20045;-84
2023/09/05 05:47:48;;;;;;;6.97;4.00;;;;;;;15.27;100.00;101748.44;4788254;30;20492;-83
2023/09/05 05:50:13;;;;;;;5.97;3.87;;;;;;;15.33;100.00;101739.34;4788361;29;20047;-83
2023/09/05 05:52:39;;;;;;;7.40;3.70;;;;;;;15.39;100.00;101737.59;4788330;29;20508;-83
2023/09/05 05:55:05;;;;;;;5.30;3.70;;;;;;;15.45;100.00;101744.91;4789316;29;20043;-82
2023/09/05 05:57:31;;;;;;;8.38;3.72;;;;;;;15.53;100.00;101754.69;4802451;29;20092;-82
2023/09/05 05:59:56;;;;;;;8.77;3.53;;;;;;;15.59;100.00;101751.91;4788212;29;20040;-82
2023/09/05 06:02:21;;;;;;;4.20;3.50;;;;;;;15.66;100.00;101751.81;4787862;29;20098;-82
2023/09/05 06:04:47;;;;;;;4.97;3.37;;;;;;;15.75;100.00;101744.16;4787879;29;20362;-82
2023/09/05 06:07:12;;;;;;;7.07;3.20;;;;;;;15.82;100.00;101739.47;4787917;30;20408;-82
2023/09/05 06:09:38;;;;;;;7.10;3.60;;;;;;;15.90;100.00;101741.06;4789077;29;20046;-82
2023/09/05 06:12:04;;;;;;;7.30;3.13;;;;;;;16.00;100.00;101743.25;4789216;29;20035;-82
2023/09/05 06:14:30;;;;;;;5.35;3.40;;;;;;;16.05;100.00;101741.50;4787831;29;20477;-82
2023/09/05 06:16:55;;;;;;;5.43;3.33;;;;;;;16.15;100.00;101735.50;4788080;30;20048;-82
2023/09/05 06:19:21;;;;;;;4.75;3.00;;;;;;;16.24;100.00;101741.47;4787609;29;20043;-83
2023/09/05 06:21:46;;;;;;;5.43;3.03;;;;;;;16.33;100.00;101739.22;4787073;29;20043;-82
2023/09/05 06:24:12;;;;;;;6.00;2.97;;;;;;;16.41;100.00;101742.47;4787761;30;20050;-82
2023/09/05 06:26:38;;;;;;;8.30;3.13;;;;;;;16.48;100.00;101747.88;4788420;30;20052;-82
2023/09/05 06:29:03;;;;;;;6.33;3.13;;;;;;;16.52;100.00;101735.41;4802485;29;20035;-82
2023/09/05 06:31:30;;;;;;;5.40;3.28;;;;;;;16.61;100.00;101741.38;4787645;30;20042;-82
2023/09/05 06:33:55;;;;;;;5.97;3.07;;;;;;;16.67;100.00;101746.75;4772541;29;20403;-82
2023/09/05 06:36:20;;;;;;;5.00;3.05;;;;;;;16.73;99.93;101747.72;4788510;29;20043;-82
2023/09/05 06:38:46;;;;;;;6.17;3.03;;;;;;;16.78;99.95;101756.03;4787416;30;20063;-82
2023/09/05 06:41:11;;;;;;;7.50;3.47;;;;;;;16.83;99.48;101745.22;4787097;29;20498;-83
2023/09/05 06:43:37;;;;;;;6.27;3.40;;;;;;;16.90;99.55;101744.31;4788541;29;20039;-82
2023/09/05 06:46:04;;;;;;;5.30;3.20;;;;;;;16.95;99.21;101752.69;4802181;29;20043;-82
2023/09/05 06:48:33;;;;;;;6.35;3.10;;;;;;;16.99;98.88;101751.13;4788277;29;20092;-83
2023/09/05 06:50:59;;;;;;;7.63;2.92;;;;;;;17.07;98.38;101750.78;4787998;30;20047;-83
2023/09/05 06:53:28;;;;;;;8.40;4.57;;;;;;;17.13;97.74;101755.31;4786795;29;20068;-83
2023/09/05 06:55:54;;;;;;;11.70;4.53;;;;;;;17.18;96.86;101736.25;4771996;30;20041;-82
2023/09/05 06:58:22;;;;;;;6.87;4.17;;;;;;;17.26;96.87;101746.03;4801122;29;20123;-82
2023/09/05 07:00:53;;;;;;;8.93;4.80;;;;;;;17.33;95.79;101745.88;4787993;29;20119;-82
2023/09/05 07:03:19;;;;;;;6.32;3.05;;;;;;;17.39;96.03;101738.59;4787520;30;20031;-83
2023/09/05 07:05:45;;;;;;;4.55;2.80;;;;;;;17.45;95.20;101732.16;4788194;29;20088;-83
2023/09/05 07:08:11;;;;;;;4.35;2.80;;;;;;;17.50;94.62;101733.13;4742785;30;20236;-83
2023/09/05 07:10:36;;;;;;;5.97;3.13;;;;;;;17.55;94.60;101735.13;4772362;30;20138;-83
2023/09/05 07:13:02;;;;;;;6.30;2.60;;;;;;;17.61;94.72;101730.59;4786800;29;20063;-82
2023/09/05 07:15:27;;;;;;;4.13;2.72;;;;;;;17.69;94.76;101735.72;4787476;30;20043;-83
2023/09/05 07:17:53;;;;;;;6.73;2.73;;;;;;;17.74;94.45;101733.06;4787011;30;20035;-83
2023/09/05 07:20:18;;;;;;;4.00;2.63;;;;;;;17.80;94.14;101723.88;4772344;30;20036;-83
2023/09/05 07:22:43;;;;;;;6.23;3.20;;;;;;;17.85;93.76;101726.72;4788477;29;20047;-83
2023/09/05 07:25:09;;;;;;;6.10;2.80;;;;;;;17.93;92.95;101722.78;4786725;30;20046;-83
2023/09/05 07:27:34;;;;;;;4.07;2.80;;;;;;;18.01;92.59;101724.31;4787902;29;20092;-83
2023/09/05 07:30:00;;;;;;;4.23;2.57;;;;;;;18.11;91.85;101726.44;4789277;30;20096;-83
2023/09/05 07:32:25;;;;;;;4.87;2.57;;;;;;;18.16;91.74;101721.03;4786873;29;20112;-83
2023/09/05 07:34:50;;;;;;;5.47;2.67;;;;;;;18.21;91.45;101716.47;4787105;29;20035;-82
2023/09/05 07:37:16;;;;;;;3.77;2.70;;;;;;;18.29;91.07;101718.03;4788308;30;20056;-82
2023/09/05 07:39:50;;;;;;;3.65;2.35;;;;;;;18.36;90.98;101706.84;4787071;29;20032;-83
2023/09/05 07:42:16;;;;;;;6.78;2.90;;;;;;;18.47;89.48;101711.47;4788256;29;20042;-83
2023/09/05 07:44:44;;;;;;;4.23;2.33;;;;;;;18.55;89.61;101716.53;4788578;30;20032;-83
2023/09/05 07:47:10;;;;;;;3.75;2.65;;;;;;;18.63;89.16;101715.31;4788058;30;20413;-83
2023/09/05 07:49:42;;;;;;;3.33;2.60;;;;;;;18.66;89.17;101719.47;4788053;30;20035;-83
2023/09/05 07:52:08;;;;;;;4.00;2.95;;;;;;;18.73;88.88;101715.50;4789272;29;20070;-82
2023/09/05 07:54:36;;;;;;;3.97;2.28;;;;;;;18.83;88.78;101717.56;4791498;30;20066;-84
2023/09/05 07:57:02;;;;;;;3.80;2.40;;;;;;;18.91;87.66;101719.94;4790077;30;20058;-83
2023/09/05 07:59:28;;;;;;;3.45;2.30;;;;;;;18.97;87.72;101729.13;4791582;30;20469;-83
2023/09/05 08:01:55;;;;;;;4.57;2.33;;;;;;;19.07;87.13;101722.91;4791539;30;20062;-83
2023/09/05 08:04:21;;;;;;;4.40;2.37;;;;;;;19.20;85.54;101730.81;4805361;29;20654;-83
2023/09/05 08:06:47;;;;;;;5.20;2.80;;;;;;;19.30;84.84;101735.66;4790340;30;20050;-83
2023/09/05 08:09:13;;;;;;;3.28;2.63;;;;;;;19.37;84.83;101739.06;4790073;29;20035;-82
2023/09/05 08:11:39;;;;;;;5.57;2.53;;;;;;;19.45;84.76;101741.38;4790042;29;20080;-83
2023/09/05 08:14:04;;;;;;;4.00;2.40;;;;;;;19.53;84.54;101728.25;4775282;30;20039;-83
2023/09/05 08:16:30;;;;;;;7.53;2.47;;;;;;;19.59;84.17;101732.75;4760751;30;20035;-83
2023/09/05 08:18:55;;;;;;;6.07;2.30;;;;;;;19.66;84.34;101722.38;4791028;30;20047;-83
2023/09/05 08:21:21;;;;;;;4.87;2.70;;;;;;;19.72;84.66;101724.09;4789866;30;20036;-83
2023/09/05 08:23:49;;;;;;;8.33;2.40;;;;;;;19.79;84.36;101730.28;4789888;29;20332;-83
2023/09/05 08:26:16;;;;;;;4.60;2.70;;;;;;;19.88;83.01;101733.44;4790780;30;20097;-83
2023/09/05 08:28:43;;;;;;;3.85;2.40;;;;;;;19.98;83.03;101730.78;4790183;29;20060;-83
2023/09/05 08:31:15;;;;;;;5.38;2.70;;;;;;;20.04;83.35;101728.13;4804513;29;20078;-83
2023/09/05 08:33:40;;;;;;;6.45;2.60;;;;;;;20.11;82.27;101721.31;4789868;30;20135;-83
2023/09/05 08:36:08;;;;;;;5.57;2.33;;;;;;;20.19;80.98;101721.94;4775043;30;20451;-83
2023/09/05 08:38:35;;;;;;;7.40;2.63;;;;;;;20.26;81.94;101722.56;4804923;29;20039;-83
2023/09/05 08:41:01;;;;;;;3.53;2.30;;;;;;;20.35;81.48;101718.25;4804763;29;20430;-83
2023/09/05 08:43:27;;;;;;;6.78;2.47;;;;;;;20.44;80.47;101710.34;4790860;30;20058;-83
2023/09/05 08:45:54;;;;;;;3.42;2.53;;;;;;;20.51;80.97;101720.06;4789646;30;20032;-83
2023/09/05 08:48:20;;;;;;;4.57;2.40;;;;;;;20.57;80.15;101717.38;4804665;29;20603;-83
2023/09/05 08:50:45;;;;;;;3.77;2.47;;;;;;;20.66;80.26;101719.41;4789358;30;20137;-83
2023/09/05 08:53:15;;;;;;;4.50;2.60;;;;;;;20.79;79.83;101715.38;4790639;30;20078;-83
2023/09/05 08:55:42;;;;;;;4.03;2.22;;;;;;;20.89;79.33;101714.63;4790722;30;20032;-82
2023/09/05 08:58:11;;;;;;;5.45;2.00;;;;;;;20.97;77.99;101722.41;4774222;30;20446;-83
2023/09/05 09:00:37;;;;;;;3.40;2.13;;;;;;;21.05;78.80;101726.59;4790382;30;20035;-83
2023/09/05 09:03:05;;;;;;;5.53;2.40;;;;;;;21.11;78.34;101722.81;4789103;29;20079;-83
2023/09/05 09:05:30;;;;;;;3.97;2.67;;;;;;;21.21;78.22;101722.00;4773298;30;20196;-83
2023/09/05 09:07:56;;;;;;;10.57;2.53;;;;;;;21.30;76.74;101720.41;4789294;30;20535;-83
2023/09/05 09:10:23;;;;;;;4.68;2.22;;;;;;;21.44;76.29;101731.00;4759568;30;20035;-83
2023/09/05 09:13:12;;;;;;;9.20;2.30;;;;;;;21.52;76.72;101734.09;4790300;30;20045;-83
2023/09/05 09:15:39;;;;;;;7.82;2.40;;;;;;;21.63;76.25;101740.53;4773929;30;20041;-83
2023/09/05 09:18:11;;;;;;;6.10;2.70;;;;;;;21.72;75.68;101729.78;4788637;30;20039;-84
2023/09/05 09:20:47;;;;;;;3.95;2.47;;;;;;;21.81;75.36;101736.47;4788991;30;20032;-83
2023/09/05 09:23:24;;;;;;;5.80;2.45;;;;;;;21.87;75.19;101724.31;4790250;30;20070;-83
2023/09/05 09:25:49;;;;;;;6.27;2.30;;;;;;;22.01;75.24;101732.94;4803898;29;20039;-83
2023/09/05 09:28:22;;;;;;;6.47;2.55;;;;;;;22.15;74.98;101733.25;4789661;30;20043;-83
2023/09/05 09:30:55;;;;;;;4.90;2.20;;;;;;;22.27;72.71;101737.72;4789810;29;20035;-83
2023/09/05 09:33:22;;;;;;;5.20;2.33;;;;;;;22.36;73.03;101747.97;4790321;30;20088;-83
2023/09/05 09:36:02;;;;;;;4.00;2.35;;;;;;;22.49;73.99;101740.28;4789033;30;20492;-83
2023/09/05 09:38:28;;;;;;;5.65;2.42;;;;;;;22.58;72.76;101738.63;4790172;29;20163;-83
2023/09/05 09:40:55;;;;;;;7.72;2.78;;;;;;;22.71;72.09;101740.84;4772884;29;20052;-83
2023/09/05 09:43:20;;;;;;;4.53;2.50;;;;;;;22.85;70.48;101743.06;4803568;29;20481;-83
2023/09/05 09:45:46;;;;;;;5.97;2.30;;;;;;;22.95;70.62;101746.63;4789582;29;20048;-83
2023/09/05 09:48:16;;;;;;;5.83;2.17;;;;;;;23.08;72.04;101738.91;4788295;30;20044;-83
2023/09/05 09:50:45;;;;;;;7.32;2.40;;;;;;;23.21;70.60;101731.97;4789806;30;20039;-83
2023/09/05 09:53:15;;;;;;;6.15;2.33;;;;;;;23.33;70.37;101737.25;4773633;30;20374;-83
2023/09/05 09:55:44;;;;;;;3.35;2.50;;;;;;;23.45;69.41;101737.75;4788172;29;20122;-83
2023/09/05 09:58:18;;;;;;;4.13;2.72;;;;;;;23.55;68.53;101740.50;4787826;30;20038;-83
2023/09/05 10:00:47;;;;;;;6.43;2.50;;;;;;;23.65;67.70;101734.06;4789503;30;20503;-83
2023/09/05 10:03:16;;;;;;;5.85;2.75;;;;;;;23.80;67.48;101739.56;4788348;30;20043;-83
2023/09/05 10:05:43;;;;;;;4.90;2.45;;;;;;;23.94;67.41;101748.13;4789493;30;20039;-83
2023/09/05 10:08:11;;;;;;;5.57;2.70;;;;;;;24.10;67.17;101742.50;4789102;30;20075;-83
2023/09/05 10:10:39;;;;;;;2.85;2.20;;;;;;;24.19;66.73;101731.66;4789310;29;20511;-83
2023/09/05 10:13:07;;;;;;;5.03;2.53;;;;;;;24.28;65.90;101727.97;4789291;30;20123;-83
2023/09/05 10:15:35;;;;;;;7.15;2.70;;;;;;;24.46;65.33;101729.25;4788574;29;20062;-83
2023/09/05 10:18:02;;;;;;;4.72;2.35;;;;;;;24.58;64.80;101717.81;4787829;29;20095;-83
2023/09/05 10:20:30;;;;;;;6.95;2.70;;;;;;;24.69;64.94;101724.13;4789133;29;20099;-83
2023/09/05 10:22:55;;;;;;;5.22;2.60;;;;;;;24.89;63.07;101716.72;4788886;30;20039;-83
2023/09/05 10:25:22;;;;;;;7.23;2.40;;;;;;;25.07;62.58;101716.00;4789161;29;20392;-83
2023/09/05 10:27:49;;;;;;;4.25;2.20;;;;;;;25.19;63.04;101716.44;4788495;29;20099;-83
2023/09/05 10:30:14;;;;;;;6.38;2.10;;;;;;;25.35;62.07;101717.13;4789063;29;20039;-83
2023/09/05 10:32:44;;;;;;;4.67;2.53;;;;;;;25.53;61.27;101717.50;4787274;29;20130;-83
2023/09/05 10:35:10;;;;;;;2.95;2.55;;;;;;;25.67;60.22;101717.59;4788848;29;20172;-83
2023/09/05 10:37:44;;;;;;;3.73;2.20;;;;;;;25.78;59.62;101716.34;4788774;30;20117;-83
2023/09/05 10:40:11;;;;;;;3.30;2.15;;;;;;;25.94;57.01;101713.34;4802630;29;20031;-83
2023/09/05 10:42:50;;;;;;;2.95;2.13;;;;;;;26.10;58.54;101717.59;4788700;29;20035;-84
2023/09/05 10:45:21;;;;;;;4.00;2.00;;;;;;;26.34;56.09;101713.91;4788899;29;20041;-84
2023/09/05 10:47:53;;;;;;;4.70;2.20;;;;;;;26.52;55.56;101712.25;4788659;30;20039;-83
2023/09/05 10:50:20;;;;;;;5.67;2.20;;;;;;;26.77;55.50;101714.63;4788983;30;20112;-83
2023/09/05 10:53:11;;;;;;;4.30;2.53;;;;;;;26.98;56.70;101710.69;4787439;30;20477;-83
2023/09/05 10:55:44;;;;;;;4.43;2.42;;;;;;;27.19;54.81;101702.75;4787595;30;20503;-83
2023/09/05 10:58:51;;;;;;;3.33;2.50;;;;;;;27.46;55.80;101697.25;4788350;30;20557;-83
2023/09/05 11:01:34;;;;;;;3.03;2.13;;;;;;;27.78;54.24;101700.19;4787176;30;20070;-83
2023/09/05 11:04:08;;;;;;;3.27;2.07;;;;;;;28.09;52.34;101697.56;4788518;30;20542;-83
2023/09/05 11:06:34;;;;;;;3.50;2.00;;;;;;;28.38;50.76;101690.75;4787518;30;20035;-84
2023/09/05 11:09:05;;;;;;;4.35;2.22;;;;;;;28.68;48.58;101694.78;4787334;30;20035;-83
2023/09/05 11:11:31;;;;;;;3.08;2.42;;;;;;;29.21;49.55;101695.91;4787493;30;20043;-83
2023/09/05 11:13:57;;;;;;;4.47;2.10;;;;;;;30.81;46.37;101695.78;4801996;29;20556;-83
2023/09/05 11:16:23;;;;;;;3.80;2.60;;;;;;;33.82;41.27;101684.97;4772539;30;20070;-83
2023/09/05 11:18:55;;;;;;;2.30;2.10;;;;;;;37.11;33.67;101680.34;4787038;30;20089;-82
2023/09/05 11:21:25;;;;;;;2.50;2.30;;;;;;;39.72;28.46;101689.44;4773164;30;20031;-81